Time;durP1;ratioP1;P1;durP2;ratioP2;P2;SDS_P1;SDS_P2;PMS_P1;PMS_P2;Temp;Humidity;BMP_temperature;BMP_pressure;BME280_temperature;BME280_humidity;BME280_pressure;Samples;Min_cycle;Max_cycle;Signal;HPM_P1;HPM_P2
2023/06/30 00:00:33;;;;;;;12.50;6.65;;;;;;;16.19;100.00;92511.03;5072930;28;20048;-77
2023/06/30 00:02:59;;;;;;;9.68;6.82;;;;;;;16.29;100.00;92501.94;5072975;28;20028;-77
2023/06/30 00:05:25;;;;;;;9.00;5.90;;;;;;;16.27;100.00;92504.91;5072871;28;20040;-77
2023/06/30 00:07:54;;;;;;;8.57;5.97;;;;;;;16.30;100.00;92496.34;5071552;28;20036;-77
2023/06/30 00:10:23;;;;;;;9.27;5.85;;;;;;;16.33;100.00;92502.88;5073291;28;20249;-77
2023/06/30 00:12:49;;;;;;;9.07;6.15;;;;;;;16.33;100.00;92500.22;5073446;28;20040;-77
2023/06/30 00:15:15;;;;;;;11.40;7.05;;;;;;;16.32;100.00;92496.00;5072755;28;20043;-77
2023/06/30 00:17:40;;;;;;;10.73;6.80;;;;;;;16.31;100.00;92489.19;5072812;28;20059;-77
2023/06/30 00:20:06;;;;;;;17.10;7.43;;;;;;;16.26;100.00;92482.25;5072881;28;20105;-77
2023/06/30 00:22:35;;;;;;;10.10;7.15;;;;;;;16.22;100.00;92476.03;5071864;28;20036;-77
2023/06/30 00:25:01;;;;;;;11.68;7.45;;;;;;;16.16;100.00;92477.31;5072664;28;20296;-77
2023/06/30 00:27:27;;;;;;;11.95;7.68;;;;;;;16.15;100.00;92478.44;5072393;28;20045;-77
2023/06/30 00:29:52;;;;;;;12.52;8.18;;;;;;;16.13;100.00;92477.97;5071260;28;20041;-77
2023/06/30 00:32:19;;;;;;;10.98;7.80;;;;;;;16.11;100.00;92478.28;5071414;28;20089;-77
2023/06/30 00:34:45;;;;;;;14.30;8.65;;;;;;;16.12;100.00;92479.03;5070919;28;20517;-77
2023/06/30 00:37:12;;;;;;;11.63;8.23;;;;;;;16.10;100.00;92476.75;5071292;28;20513;-77
2023/06/30 00:39:37;;;;;;;15.07;8.90;;;;;;;16.10;100.00;92470.66;5054967;28;20033;-77
2023/06/30 00:42:03;;;;;;;15.25;10.00;;;;;;;16.09;100.00;92471.78;5072367;28;20101;-77
2023/06/30 00:44:29;;;;;;;14.50;8.50;;;;;;;16.12;100.00;92465.84;5070665;28;20033;-77
2023/06/30 00:46:54;;;;;;;9.38;6.43;;;;;;;16.13;100.00;92467.41;5070909;28;20447;-77
2023/06/30 00:49:22;;;;;;;12.20;9.13;;;;;;;16.16;100.00;92461.47;5070871;28;20048;-77
2023/06/30 00:51:48;;;;;;;14.02;9.35;;;;;;;16.15;100.00;92466.00;5070721;28;20506;-77
2023/06/30 00:54:14;;;;;;;14.52;9.85;;;;;;;16.10;100.00;92457.47;5070826;28;20470;-77
2023/06/30 00:56:39;;;;;;;13.70;9.68;;;;;;;16.07;100.00;92463.41;5070268;28;20494;-77
2023/06/30 00:59:05;;;;;;;15.77;9.23;;;;;;;16.07;100.00;92456.25;5070811;28;20043;-77
2023/06/30 01:01:40;;;;;;;15.85;8.98;;;;;;;16.09;100.00;92448.00;5070855;28;20143;-77
2023/06/30 01:04:35;;;;;;;13.40;9.70;;;;;;;16.08;100.00;92441.97;5070949;28;20483;-77
2023/06/30 01:07:31;;;;;;;14.07;9.50;;;;;;;16.07;100.00;92437.00;5072132;28;20102;-77
2023/06/30 01:10:03;;;;;;;13.63;9.45;;;;;;;16.15;100.00;92446.75;5071308;28;20036;-77
2023/06/30 01:12:30;;;;;;;13.98;9.20;;;;;;;16.14;100.00;92439.91;5071478;28;20040;-77
2023/06/30 01:14:56;;;;;;;15.05;8.75;;;;;;;16.14;100.00;92437.25;5070395;28;20021;-77
2023/06/30 01:17:24;;;;;;;12.18;8.07;;;;;;;16.14;100.00;92432.75;5071699;28;20043;-77
2023/06/30 01:19:53;;;;;;;13.32;8.77;;;;;;;16.14;100.00;92429.34;5071687;28;20043;-77
2023/06/30 01:22:41;;;;;;;14.57;8.90;;;;;;;16.22;100.00;92431.16;5070223;28;20181;-77
2023/06/30 01:25:20;;;;;;;12.75;8.80;;;;;;;16.19;100.00;92424.66;5071488;28;20036;-77
2023/06/30 01:27:46;;;;;;;15.55;9.23;;;;;;;16.17;100.00;92426.06;5071273;28;20033;-77
2023/06/30 01:30:13;;;;;;;13.95;9.60;;;;;;;16.17;100.00;92421.56;5070078;28;20036;-77
2023/06/30 01:32:40;;;;;;;14.18;9.10;;;;;;;16.16;100.00;92420.00;5070015;28;20032;-77
2023/06/30 01:35:06;;;;;;;13.88;9.77;;;;;;;16.19;100.00;92415.97;5070296;28;20040;-77
2023/06/30 01:37:32;;;;;;;18.45;9.82;;;;;;;16.20;100.00;92417.50;5071628;28;20111;-77
2023/06/30 01:39:58;;;;;;;15.27;9.65;;;;;;;16.18;100.00;92398.56;5071695;28;20043;-77
2023/06/30 01:42:24;;;;;;;18.88;10.60;;;;;;;16.17;100.00;92404.94;5071403;28;20074;-77
2023/06/30 01:44:51;;;;;;;14.55;10.48;;;;;;;16.16;100.00;92411.31;5071437;28;20051;-77
2023/06/30 01:47:17;;;;;;;14.00;9.70;;;;;;;16.15;100.00;92409.78;5069371;28;20509;-77
2023/06/30 01:49:44;;;;;;;15.70;10.77;;;;;;;16.16;100.00;92406.78;5070327;28;20044;-77
2023/06/30 01:52:09;;;;;;;16.25;10.57;;;;;;;16.16;100.00;92411.31;5069871;28;20038;-77
2023/06/30 01:54:35;;;;;;;14.55;10.18;;;;;;;16.15;100.00;92405.25;5071318;28;20410;-77
2023/06/30 01:57:00;;;;;;;17.25;10.35;;;;;;;16.16;100.00;92408.66;5070059;28;20037;-77
2023/06/30 01:59:26;;;;;;;18.65;10.63;;;;;;;16.16;100.00;92404.16;5069852;28;20032;-77
2023/06/30 02:01:52;;;;;;;15.13;10.23;;;;;;;16.17;100.00;92403.06;5071118;28;20033;-77
2023/06/30 02:04:17;;;;;;;15.18;10.20;;;;;;;16.19;100.00;92394.84;5071014;28;20039;-77
2023/06/30 02:06:46;;;;;;;15.13;9.48;;;;;;;16.18;100.00;92388.75;5070079;28;20490;-77
2023/06/30 02:09:12;;;;;;;15.13;10.70;;;;;;;16.20;100.00;92391.84;5070849;28;20479;-77
2023/06/30 02:11:38;;;;;;;14.10;10.15;;;;;;;16.23;100.00;92388.59;5069971;28;20094;-77
2023/06/30 02:14:04;;;;;;;15.27;10.30;;;;;;;16.23;100.00;92385.94;5053224;28;20036;-77
2023/06/30 02:16:30;;;;;;;14.48;10.10;;;;;;;16.24;100.00;92379.56;5071155;28;20056;-77
2023/06/30 02:18:56;;;;;;;17.85;10.23;;;;;;;16.27;100.00;92380.75;5069871;28;20036;-77
2023/06/30 02:21:22;;;;;;;14.57;10.38;;;;;;;16.28;100.00;92374.41;5052965;28;20144;-77
2023/06/30 02:23:49;;;;;;;14.55;10.63;;;;;;;16.29;100.00;92375.16;5069575;28;20040;-78
2023/06/30 02:26:15;;;;;;;13.77;9.57;;;;;;;16.31;100.00;92380.91;5071924;28;20029;-77
2023/06/30 02:28:40;;;;;;;14.18;9.98;;;;;;;16.30;100.00;92376.69;5071293;28;20035;-77
2023/06/30 02:31:06;;;;;;;15.38;9.55;;;;;;;16.29;100.00;92370.66;5071390;28;20470;-77
2023/06/30 02:33:34;;;;;;;14.65;9.85;;;;;;;16.32;100.00;92372.63;5042300;28;20051;-78
2023/06/30 02:36:02;;;;;;;14.48;9.13;;;;;;;16.32;100.00;92369.22;5078928;28;20039;-78
2023/06/30 02:38:29;;;;;;;14.65;8.93;;;;;;;16.31;100.00;92367.69;5079970;28;20506;-78
2023/06/30 02:40:54;;;;;;;12.35;8.85;;;;;;;16.27;100.00;92362.28;5045830;28;20037;-78
2023/06/30 02:43:20;;;;;;;12.38;8.70;;;;;;;16.24;100.00;92363.69;5080091;28;20057;-78
2023/06/30 02:45:46;;;;;;;14.10;9.15;;;;;;;16.19;100.00;92361.28;5078681;28;20036;-78
2023/06/30 02:48:12;;;;;;;12.95;9.18;;;;;;;16.18;100.00;92370.28;5078662;28;20040;-78
2023/06/30 02:50:38;;;;;;;14.25;9.45;;;;;;;16.17;100.00;92363.47;5079187;28;20032;-78
2023/06/30 02:53:04;;;;;;;13.48;9.32;;;;;;;16.20;100.00;92368.09;5078276;28;20039;-78
2023/06/30 02:55:29;;;;;;;14.60;9.20;;;;;;;16.22;100.00;92363.25;5062414;28;20055;-78
2023/06/30 02:57:56;;;;;;;12.60;9.30;;;;;;;16.19;100.00;92371.84;5080485;28;20111;-78
2023/06/30 03:00:23;;;;;;;14.15;9.23;;;;;;;16.19;100.00;92373.72;5082485;28;20047;-78
2023/06/30 03:02:48;;;;;;;12.35;8.45;;;;;;;16.18;100.00;92369.50;5082723;28;20414;-78
2023/06/30 03:05:15;;;;;;;13.63;7.70;;;;;;;16.29;100.00;92375.94;5062874;28;20329;-78
2023/06/30 03:07:42;;;;;;;12.73;8.75;;;;;;;16.24;100.00;92381.44;5079633;28;20043;-78
2023/06/30 03:10:08;;;;;;;15.05;8.57;;;;;;;16.35;100.00;92379.94;5080047;28;20060;-78
2023/06/30 03:12:35;;;;;;;11.30;8.20;;;;;;;16.30;100.00;92377.50;5082260;28;20063;-78
2023/06/30 03:15:00;;;;;;;10.32;6.88;;;;;;;16.12;100.00;92378.72;5083438;28;20027;-78
2023/06/30 03:17:26;;;;;;;12.20;7.80;;;;;;;16.09;100.00;92377.50;5081645;28;20044;-78
2023/06/30 03:19:52;;;;;;;10.77;7.32;;;;;;;16.04;100.00;92382.97;5083839;28;20054;-78
2023/06/30 03:22:17;;;;;;;9.40;6.53;;;;;;;16.07;100.00;92376.28;5048747;28;20193;-78
2023/06/30 03:24:43;;;;;;;12.05;7.35;;;;;;;16.06;100.00;92372.09;5081644;28;20055;-78
2023/06/30 03:27:08;;;;;;;13.07;7.22;;;;;;;16.08;100.00;92372.56;5082109;28;20502;-78
2023/06/30 03:29:34;;;;;;;10.65;7.07;;;;;;;16.10;100.00;92367.69;5065921;28;20061;-78
2023/06/30 03:32:00;;;;;;;10.70;7.50;;;;;;;16.12;100.00;92370.78;5065713;28;20040;-78
2023/06/30 03:34:26;;;;;;;11.75;7.40;;;;;;;16.14;100.00;92371.25;5082076;28;20117;-78
2023/06/30 03:36:51;;;;;;;10.90;6.93;;;;;;;16.22;100.00;92380.97;5082417;28;20025;-78
2023/06/30 03:39:19;;;;;;;11.52;7.38;;;;;;;16.28;100.00;92373.59;5080805;28;20044;-78
2023/06/30 03:41:45;;;;;;;11.23;7.72;;;;;;;16.24;100.00;92373.50;5081267;28;20135;-78
2023/06/30 03:44:11;;;;;;;10.02;7.22;;;;;;;16.21;100.00;92374.13;5082099;28;20076;-78
2023/06/30 03:46:37;;;;;;;11.65;7.90;;;;;;;16.18;100.00;92366.88;5080804;28;20111;-78
2023/06/30 03:49:03;;;;;;;11.95;8.35;;;;;;;16.21;100.00;92382.06;5081087;28;20060;-78
2023/06/30 03:51:29;;;;;;;13.48;7.78;;;;;;;16.22;100.00;92386.25;5079043;28;20047;-78
2023/06/30 03:53:55;;;;;;;13.15;8.52;;;;;;;16.23;100.00;92388.59;5079746;28;20030;-78
2023/06/30 03:56:21;;;;;;;11.50;8.07;;;;;;;16.21;100.00;92389.97;5060782;28;20128;-78
2023/06/30 03:58:46;;;;;;;10.80;7.35;;;;;;;16.13;100.00;92385.56;5078876;28;20113;-78
2023/06/30 04:01:12;;;;;;;12.32;7.30;;;;;;;16.09;100.00;92387.28;5077766;28;20496;-78
2023/06/30 04:03:38;;;;;;;14.95;7.63;;;;;;;16.05;100.00;92389.00;5076396;28;20104;-78
2023/06/30 04:06:04;;;;;;;11.27;7.55;;;;;;;16.02;100.00;92383.28;5078020;28;20040;-78
2023/06/30 04:08:32;;;;;;;12.27;7.68;;;;;;;16.06;100.00;92377.38;5080267;28;20046;-78
2023/06/30 04:10:57;;;;;;;11.80;7.95;;;;;;;16.06;100.00;92372.88;5078113;28;20044;-78
2023/06/30 04:13:23;;;;;;;11.38;8.18;;;;;;;16.09;100.00;92368.81;5078852;28;20098;-78
2023/06/30 04:15:49;;;;;;;14.18;9.25;;;;;;;16.15;100.00;92368.28;5078289;28;20028;-78
2023/06/30 04:18:14;;;;;;;10.52;8.45;;;;;;;16.16;100.00;92363.78;5078908;28;20098;-78
2023/06/30 04:20:40;;;;;;;13.52;8.82;;;;;;;16.17;100.00;92373.25;5079430;28;20037;-78
2023/06/30 04:23:05;;;;;;;15.68;9.00;;;;;;;16.17;100.00;92357.41;5080039;28;20505;-78
2023/06/30 04:25:31;;;;;;;13.35;9.05;;;;;;;16.19;100.00;92356.00;5080072;28;20505;-78
2023/06/30 04:27:56;;;;;;;13.10;8.40;;;;;;;16.21;100.00;92353.00;5077973;28;20106;-78
2023/06/30 04:30:22;;;;;;;17.38;8.77;;;;;;;16.25;100.00;92359.19;5076167;28;20036;-78
2023/06/30 04:32:47;;;;;;;14.85;8.90;;;;;;;16.24;100.00;92362.94;5076955;28;20032;-78
2023/06/30 04:35:14;;;;;;;12.48;8.98;;;;;;;16.25;100.00;92356.53;5075509;28;20517;-78
2023/06/30 04:37:40;;;;;;;12.63;8.68;;;;;;;16.24;100.00;92357.66;5074520;28;20040;-78
2023/06/30 04:40:10;;;;;;;14.50;8.55;;;;;;;16.25;100.00;92364.47;5075077;28;20044;-78
2023/06/30 04:42:36;;;;;;;15.00;8.27;;;;;;;16.24;100.00;92360.28;5074133;28;20133;-77
2023/06/30 04:45:03;;;;;;;12.02;8.25;;;;;;;16.25;100.00;92353.91;5072359;28;20086;-78
2023/06/30 04:47:28;;;;;;;12.98;8.77;;;;;;;16.28;100.00;92352.47;5073376;28;20033;-77
2023/06/30 04:49:55;;;;;;;13.00;8.75;;;;;;;16.30;100.00;92345.81;5072782;28;20044;-77
2023/06/30 04:52:20;;;;;;;15.32;8.98;;;;;;;16.36;100.00;92338.44;5074765;28;20041;-78
2023/06/30 04:54:46;;;;;;;14.20;8.27;;;;;;;16.37;100.00;92335.47;5072787;28;20047;-78
2023/06/30 04:57:12;;;;;;;15.75;8.77;;;;;;;16.40;100.00;92340.09;5055802;28;20160;-78
2023/06/30 04:59:38;;;;;;;12.98;8.98;;;;;;;16.39;100.00;92333.28;5073486;28;20040;-78
2023/06/30 05:02:04;;;;;;;14.82;9.10;;;;;;;16.39;100.00;92333.28;5076337;28;20045;-78
2023/06/30 05:04:30;;;;;;;11.75;7.50;;;;;;;16.47;100.00;92338.81;5077520;28;20032;-78
2023/06/30 05:06:55;;;;;;;11.25;7.00;;;;;;;16.38;100.00;92339.66;5074477;28;20053;-78
2023/06/30 05:09:22;;;;;;;12.00;7.13;;;;;;;16.33;100.00;92337.22;5074054;28;20039;-78
2023/06/30 05:11:48;;;;;;;11.25;7.90;;;;;;;16.31;100.00;92328.84;5075203;28;20078;-78
2023/06/30 05:14:13;;;;;;;11.98;8.00;;;;;;;16.31;100.00;92331.50;5075933;28;20044;-78
2023/06/30 05:16:39;;;;;;;13.13;8.43;;;;;;;16.38;100.00;92331.72;5076713;28;20036;-78
2023/06/30 05:19:05;;;;;;;12.45;8.10;;;;;;;16.42;100.00;92329.22;5077756;28;20032;-78
2023/06/30 05:21:30;;;;;;;12.77;8.02;;;;;;;16.44;100.00;92321.75;5078173;28;20040;-78
2023/06/30 05:23:56;;;;;;;13.88;7.05;;;;;;;16.47;100.00;92313.16;5077642;28;20054;-78
2023/06/30 05:26:21;;;;;;;12.20;8.38;;;;;;;16.53;100.00;92311.09;5075110;28;20084;-78
2023/06/30 05:28:47;;;;;;;12.25;8.32;;;;;;;16.59;100.00;92304.47;5075419;28;20123;-78
2023/06/30 05:31:12;;;;;;;10.95;8.00;;;;;;;16.67;100.00;92300.97;5058024;28;20131;-78
2023/06/30 05:33:38;;;;;;;12.68;8.77;;;;;;;16.74;100.00;92298.56;5076556;28;20555;-78
2023/06/30 05:36:04;;;;;;;13.35;9.00;;;;;;;16.82;100.00;92300.38;5077757;28;20241;-78
2023/06/30 05:38:29;;;;;;;13.65;8.25;;;;;;;16.85;100.00;92298.94;5079508;28;20525;-78
2023/06/30 05:40:55;;;;;;;12.15;8.27;;;;;;;16.88;100.00;92300.91;5078108;28;20028;-78
2023/06/30 05:43:21;;;;;;;12.98;8.50;;;;;;;16.89;100.00;92299.84;5057985;28;20571;-78
2023/06/30 05:45:49;;;;;;;12.30;8.18;;;;;;;16.87;100.00;92298.63;5079391;28;20044;-78
2023/06/30 05:48:15;;;;;;;12.68;8.02;;;;;;;16.90;100.00;92282.88;5078159;28;20028;-78
2023/06/30 05:50:40;;;;;;;12.07;7.70;;;;;;;16.92;100.00;92285.19;5078594;28;20043;-77
2023/06/30 05:53:06;;;;;;;14.70;9.05;;;;;;;16.96;100.00;92297.41;5079430;28;20402;-78
2023/06/30 05:55:32;;;;;;;15.68;9.07;;;;;;;16.91;100.00;92300.28;5079142;28;20376;-78
2023/06/30 05:57:57;;;;;;;13.73;7.68;;;;;;;16.82;100.00;92292.44;5077712;28;20507;-78
2023/06/30 06:00:24;;;;;;;12.68;7.20;;;;;;;16.87;100.00;92295.97;5080341;28;20032;-78
2023/06/30 06:02:50;;;;;;;12.88;8.55;;;;;;;16.95;100.00;92300.38;5080306;28;20025;-78
2023/06/30 06:05:16;;;;;;;14.82;7.63;;;;;;;17.23;100.00;92308.44;5079947;28;20040;-78
2023/06/30 06:07:41;;;;;;;12.57;8.02;;;;;;;17.12;100.00;92312.63;5078866;28;20111;-78
2023/06/30 06:10:07;;;;;;;11.77;8.10;;;;;;;17.06;100.00;92312.81;5078216;28;20059;-78
2023/06/30 06:12:33;;;;;;;10.65;7.53;;;;;;;17.02;100.00;92316.47;5079625;28;20044;-78
2023/06/30 06:14:58;;;;;;;11.73;7.75;;;;;;;17.01;100.00;92323.63;5079069;28;20096;-78
2023/06/30 06:17:24;;;;;;;10.65;7.50;;;;;;;16.94;100.00;92326.06;5080325;28;20039;-78
2023/06/30 06:19:51;;;;;;;12.27;7.68;;;;;;;16.95;100.00;92329.47;5060741;28;20033;-78
2023/06/30 06:22:17;;;;;;;11.27;7.65;;;;;;;16.97;100.00;92330.66;5080318;28;20032;-78
2023/06/30 06:24:43;;;;;;;14.38;8.35;;;;;;;17.05;100.00;92329.03;5081429;28;20035;-78
2023/06/30 06:27:08;;;;;;;17.17;7.85;;;;;;;17.09;100.00;92337.88;5078747;28;20032;-78
2023/06/30 06:29:34;;;;;;;9.52;7.10;;;;;;;16.95;100.00;92338.16;5079340;28;20037;-78
2023/06/30 06:31:59;;;;;;;13.55;7.05;;;;;;;16.89;100.00;92347.44;5078679;28;20051;-78
2023/06/30 06:34:25;;;;;;;10.43;7.20;;;;;;;16.80;100.00;92347.50;5082386;28;20034;-78
2023/06/30 06:36:50;;;;;;;9.60;6.90;;;;;;;16.79;100.00;92345.94;5082541;28;20044;-78
2023/06/30 06:39:16;;;;;;;10.95;7.53;;;;;;;16.94;100.00;92351.72;5082314;28;20025;-78
2023/06/30 06:41:41;;;;;;;13.23;8.63;;;;;;;17.05;100.00;92355.50;5081210;28;20039;-78
2023/06/30 06:44:07;;;;;;;12.30;7.88;;;;;;;17.11;100.00;92356.03;5082965;28;20059;-78
2023/06/30 06:46:33;;;;;;;15.07;8.48;;;;;;;17.20;100.00;92354.06;5082249;28;20071;-77
2023/06/30 06:48:58;;;;;;;12.02;8.20;;;;;;;17.36;100.00;92354.97;5080222;28;20041;-78
2023/06/30 06:51:24;;;;;;;14.00;7.82;;;;;;;17.23;100.00;92348.88;5079996;28;20029;-78
2023/06/30 06:53:52;;;;;;;11.63;7.95;;;;;;;17.24;100.00;92345.13;5081873;28;20032;-78
2023/06/30 06:56:18;;;;;;;11.15;8.07;;;;;;;17.30;100.00;92344.94;5079004;28;20090;-78
2023/06/30 06:58:44;;;;;;;11.32;8.20;;;;;;;17.39;100.00;92350.88;5076408;28;20032;-78
2023/06/30 07:01:11;;;;;;;16.60;8.23;;;;;;;17.35;100.00;92352.63;5078861;28;20055;-78
2023/06/30 07:03:37;;;;;;;12.13;7.75;;;;;;;17.23;100.00;92354.16;5077705;28;20036;-77
2023/06/30 07:06:03;;;;;;;12.77;7.40;;;;;;;17.26;100.00;92358.03;5075644;28;20461;-78
2023/06/30 07:08:29;;;;;;;12.25;7.72;;;;;;;17.29;100.00;92362.66;5077735;28;20067;-77
2023/06/30 07:10:56;;;;;;;10.85;7.65;;;;;;;17.39;100.00;92351.63;5058541;28;20056;-77
2023/06/30 07:13:22;;;;;;;10.90;7.40;;;;;;;17.34;100.00;92353.72;5075634;28;20527;-78
2023/06/30 07:15:48;;;;;;;19.75;8.20;;;;;;;17.41;100.00;92359.25;5076713;28;20111;-77
2023/06/30 07:18:17;;;;;;;14.13;8.25;;;;;;;17.52;100.00;92357.72;5075759;28;20048;-77
2023/06/30 07:20:50;;;;;;;12.85;8.27;;;;;;;17.58;100.00;92361.66;5076042;28;20528;-77
2023/06/30 07:23:16;;;;;;;15.02;8.50;;;;;;;17.48;100.00;92364.75;5075446;28;20044;-77
2023/06/30 07:25:43;;;;;;;13.05;8.45;;;;;;;17.44;100.00;92366.53;5075218;28;20107;-78
2023/06/30 07:28:09;;;;;;;13.55;8.65;;;;;;;17.41;100.00;92370.59;5074913;28;20398;-78
2023/06/30 07:30:36;;;;;;;11.35;8.15;;;;;;;17.47;100.00;92365.84;5073973;28;20052;-77
2023/06/30 07:33:02;;;;;;;14.60;8.80;;;;;;;17.30;100.00;92374.03;5075397;28;20032;-78
2023/06/30 07:35:27;;;;;;;11.20;8.52;;;;;;;17.14;100.00;92366.72;5073380;28;20401;-77
2023/06/30 07:37:53;;;;;;;13.15;8.98;;;;;;;17.04;100.00;92369.78;5073755;28;20032;-77
2023/06/30 07:40:19;;;;;;;15.82;8.23;;;;;;;16.97;100.00;92369.56;5075646;28;20098;-78
2023/06/30 07:42:45;;;;;;;11.50;8.15;;;;;;;16.96;100.00;92370.69;5059544;28;20059;-78
2023/06/30 07:45:13;;;;;;;13.93;8.52;;;;;;;17.10;100.00;92373.78;5078514;28;20463;-78
2023/06/30 07:47:45;;;;;;;11.70;8.05;;;;;;;17.04;100.00;92375.09;5079172;28;20120;-78
2023/06/30 07:50:15;;;;;;;13.73;8.23;;;;;;;16.90;100.00;92361.41;5076605;28;20044;-78
2023/06/30 07:52:49;;;;;;;12.73;8.88;;;;;;;16.89;100.00;92362.50;5079368;28;20052;-78
2023/06/30 07:55:16;;;;;;;13.63;9.48;;;;;;;16.93;100.00;92363.38;5080344;28;20043;-77
2023/06/30 07:57:43;;;;;;;14.18;8.93;;;;;;;16.94;100.00;92346.44;5081328;28;20344;-78
2023/06/30 08:00:18;;;;;;;13.25;9.23;;;;;;;17.04;100.00;92340.72;5065062;28;20049;-78
2023/06/30 08:02:47;;;;;;;13.50;9.85;;;;;;;17.18;100.00;92329.81;5082908;28;20410;-78
2023/06/30 08:05:13;;;;;;;17.73;9.93;;;;;;;17.36;100.00;92327.72;5065632;28;20041;-78
2023/06/30 08:07:39;;;;;;;15.48;9.70;;;;;;;17.54;100.00;92318.47;5080772;28;20115;-78
2023/06/30 08:10:04;;;;;;;12.25;9.23;;;;;;;17.74;100.00;92308.03;5078729;28;20112;-78
2023/06/30 08:12:30;;;;;;;13.20;9.68;;;;;;;17.98;100.00;92308.00;5079202;28;20035;-77
2023/06/30 08:14:55;;;;;;;15.70;9.90;;;;;;;18.31;100.00;92309.66;5078235;28;20040;-78
2023/06/30 08:17:21;;;;;;;14.23;9.35;;;;;;;18.71;100.00;92298.19;5078728;28;20038;-78
2023/06/30 08:19:47;;;;;;;15.15;10.02;;;;;;;19.22;100.00;92305.50;5079001;28;20035;-78
2023/06/30 08:22:18;;;;;;;15.65;10.70;;;;;;;19.01;100.00;92303.13;5080606;28;20041;-78
2023/06/30 08:24:43;;;;;;;14.65;10.88;;;;;;;18.56;100.00;92304.25;5079411;28;20041;-78
2023/06/30 08:27:09;;;;;;;15.77;11.18;;;;;;;18.04;100.00;92309.31;5078282;28;20034;-78
2023/06/30 08:29:36;;;;;;;17.90;11.90;;;;;;;18.00;100.00;92300.50;5076953;28;20044;-78
2023/06/30 08:32:02;;;;;;;19.83;13.20;;;;;;;17.71;100.00;92308.72;5075212;28;20097;-77
2023/06/30 08:34:28;;;;;;;20.92;14.70;;;;;;;17.68;100.00;92300.34;5075298;28;20032;-78
2023/06/30 08:36:55;;;;;;;30.52;14.50;;;;;;;18.01;100.00;92302.06;5075679;28;20678;-78
2023/06/30 08:39:21;;;;;;;25.63;14.68;;;;;;;17.99;100.00;92304.28;5076384;28;20043;-78
2023/06/30 08:41:52;;;;;;;18.70;13.57;;;;;;;18.13;100.00;92303.13;5077233;28;20043;-78
2023/06/30 08:44:24;;;;;;;17.85;13.07;;;;;;;18.16;100.00;92302.44;5061924;28;20035;-78
2023/06/30 08:46:54;;;;;;;19.65;13.77;;;;;;;18.24;100.00;92304.94;5081775;28;20356;-78
2023/06/30 08:49:24;;;;;;;19.98;13.15;;;;;;;18.63;100.00;92301.78;5080103;28;20112;-78
2023/06/30 08:51:57;;;;;;;17.02;12.70;;;;;;;18.63;100.00;92305.19;5081196;28;20043;-78
2023/06/30 08:54:24;;;;;;;19.48;13.07;;;;;;;18.66;100.00;92309.03;5081447;28;20123;-78
2023/06/30 08:56:49;;;;;;;17.30;11.00;;;;;;;18.78;100.00;92308.22;5080690;28;20032;-78
2023/06/30 08:59:15;;;;;;;15.43;11.45;;;;;;;18.84;100.00;92312.94;5080959;28;20102;-78
2023/06/30 09:01:44;;;;;;;13.68;11.05;;;;;;;18.79;100.00;92313.19;5078708;28;20118;-78
2023/06/30 09:04:11;;;;;;;17.65;10.63;;;;;;;18.83;100.00;92329.19;5080929;28;20024;-78
2023/06/30 09:06:41;;;;;;;14.50;10.35;;;;;;;19.04;100.00;92335.03;5078787;28;20109;-78
2023/06/30 09:09:09;;;;;;;16.25;11.35;;;;;;;18.91;100.00;92329.03;5077607;28;20081;-78
2023/06/30 09:11:37;;;;;;;13.35;9.60;;;;;;;18.92;100.00;92333.22;5078872;28;20394;-78
2023/06/30 09:14:04;;;;;;;14.52;9.95;;;;;;;18.86;100.00;92331.94;5079724;28;20120;-78
2023/06/30 09:16:33;;;;;;;15.77;12.02;;;;;;;18.71;100.00;92330.00;5079041;28;20043;-78
2023/06/30 09:18:59;;;;;;;310.85;20.60;;;;;;;18.77;100.00;92335.84;5061141;28;20037;-78
2023/06/30 09:21:25;;;;;;;15.13;11.93;;;;;;;18.61;100.00;92333.16;5080441;28;20167;-78
2023/06/30 09:23:51;;;;;;;20.58;13.70;;;;;;;18.35;100.00;92334.38;5079239;28;20433;-78
2023/06/30 09:26:17;;;;;;;14.75;11.18;;;;;;;18.36;100.00;92337.81;5077089;28;20098;-78
2023/06/30 09:28:44;;;;;;;11.98;9.15;;;;;;;18.39;100.00;92327.28;5059861;28;20345;-78
2023/06/30 09:31:10;;;;;;;15.35;9.50;;;;;;;18.40;100.00;92326.19;5078794;28;20032;-78
2023/06/30 09:33:37;;;;;;;11.07;8.80;;;;;;;18.46;100.00;92326.69;5080740;28;20520;-78
2023/06/30 09:36:03;;;;;;;16.15;10.20;;;;;;;18.51;100.00;92321.94;5079001;28;20036;-78
2023/06/30 09:38:29;;;;;;;14.82;9.18;;;;;;;18.68;100.00;92322.72;5077670;28;20047;-78
2023/06/30 09:40:56;;;;;;;15.63;9.65;;;;;;;18.84;100.00;92312.16;5076615;28;20143;-77
2023/06/30 09:43:23;;;;;;;12.60;8.98;;;;;;;19.08;100.00;92308.59;5077864;28;20090;-78
2023/06/30 09:46:00;;;;;;;11.27;8.23;;;;;;;19.37;100.00;92299.41;5077818;28;20425;-78
2023/06/30 09:48:29;;;;;;;12.07;8.13;;;;;;;19.61;100.00;92303.75;5078870;28;20494;-78
2023/06/30 09:50:55;;;;;;;14.48;10.48;;;;;;;19.59;100.00;92302.53;5077209;28;20110;-78
2023/06/30 09:53:21;;;;;;;16.13;11.07;;;;;;;19.44;100.00;92298.81;5075347;28;20032;-78
2023/06/30 09:55:51;;;;;;;14.00;10.18;;;;;;;19.46;100.00;92296.56;5071883;28;20033;-78
2023/06/30 09:58:19;;;;;;;19.50;8.13;;;;;;;19.38;100.00;92300.16;5074447;28;20124;-78
2023/06/30 10:00:46;;;;;;;10.30;7.65;;;;;;;19.24;100.00;92312.00;5074174;28;20056;-77
2023/06/30 10:03:16;;;;;;;13.48;10.18;;;;;;;19.23;100.00;92299.84;5073158;28;20060;-77
2023/06/30 10:05:43;;;;;;;14.85;11.68;;;;;;;19.11;100.00;92306.00;5072961;28;20446;-77
2023/06/30 10:08:11;;;;;;;15.45;11.55;;;;;;;19.20;100.00;92295.22;5071794;28;20078;-77
2023/06/30 10:10:36;;;;;;;14.85;10.15;;;;;;;19.32;100.00;92297.03;5072804;28;20482;-77
2023/06/30 10:13:02;;;;;;;13.57;9.27;;;;;;;19.55;100.00;92299.81;5071892;28;20035;-77
2023/06/30 10:15:30;;;;;;;13.02;8.85;;;;;;;19.61;100.00;92300.28;5071887;28;20040;-77
2023/06/30 10:17:58;;;;;;;12.30;7.28;;;;;;;19.53;100.00;92296.72;5072467;28;20032;-77
2023/06/30 10:20:24;;;;;;;11.52;7.38;;;;;;;19.79;100.00;92304.13;5071319;28;20407;-77
2023/06/30 10:22:52;;;;;;;10.63;7.63;;;;;;;19.74;100.00;92301.75;5072210;28;20091;-77
2023/06/30 10:25:20;;;;;;;11.60;7.47;;;;;;;19.42;100.00;92306.34;5073763;28;20117;-78
2023/06/30 10:27:47;;;;;;;12.10;7.90;;;;;;;19.51;100.00;92304.25;5073801;28;20114;-78
2023/06/30 10:30:14;;;;;;;10.15;7.22;;;;;;;19.48;100.00;92303.06;5071702;28;20056;-77
2023/06/30 10:32:39;;;;;;;9.18;6.97;;;;;;;19.49;100.00;92306.50;5074065;28;20029;-77
2023/06/30 10:35:08;;;;;;;10.15;7.70;;;;;;;19.59;100.00;92311.28;5056065;28;20492;-78
2023/06/30 10:37:34;;;;;;;9.60;5.88;;;;;;;19.47;100.00;92316.69;5071160;28;20025;-78
2023/06/30 10:40:00;;;;;;;12.05;9.57;;;;;;;19.35;100.00;92302.41;5072494;28;20036;-78
2023/06/30 10:42:28;;;;;;;176.68;20.42;;;;;;;18.88;100.00;92307.72;5073752;28;20098;-78
2023/06/30 10:45:01;;;;;;;19.80;15.20;;;;;;;18.74;100.00;92305.47;5072368;28;20065;-78
2023/06/30 10:47:29;;;;;;;18.45;13.30;;;;;;;18.66;100.00;92304.50;5073025;28;20073;-78
2023/06/30 10:49:55;;;;;;;15.25;10.35;;;;;;;18.59;100.00;92303.56;5072047;28;20606;-78
2023/06/30 10:52:25;;;;;;;16.17;11.73;;;;;;;18.63;100.00;92309.72;5072811;28;20048;-78
2023/06/30 10:54:51;;;;;;;12.10;9.32;;;;;;;18.64;100.00;92305.97;5079867;28;20049;-79
2023/06/30 10:57:23;;;;;;;12.30;9.32;;;;;;;18.57;100.00;92303.13;5059679;28;20402;-78
2023/06/30 11:00:06;;;;;;;13.45;9.73;;;;;;;18.64;100.00;92309.41;5061780;28;20547;-80
2023/06/30 11:02:33;;;;;;;14.32;9.95;;;;;;;18.66;100.00;92303.75;5065969;28;20112;-77
2023/06/30 11:05:27;;;;;;;12.85;9.32;;;;;;;18.68;100.00;92302.28;5061899;28;20039;-77
2023/06/30 11:08:02;;;;;;;11.98;9.50;;;;;;;18.66;100.00;92299.19;5054546;28;20152;-78
2023/06/30 11:10:36;;;;;;;13.65;9.60;;;;;;;18.67;100.00;92306.06;5051806;28;20421;-77
2023/06/30 11:13:08;;;;;;;20.75;13.70;;;;;;;18.57;100.00;92306.53;5061994;28;20032;-76
2023/06/30 11:15:43;;;;;;;16.48;11.48;;;;;;;18.14;100.00;92315.25;5056155;28;20052;-78